sensor_id;sensor_type;location;lat;lon;timestamp;P1;durP1;ratioP1;P2;durP2;ratioP2
64351;SDS011;50680;52.626;-8.668;2023-09-19T00:00:55;17.83;;;4.82;;
64351;SDS011;50680;52.626;-8.668;2023-09-19T00:03:23;19.75;;;4.53;;
64351;SDS011;50680;52.626;-8.668;2023-09-19T00:05:51;15.68;;;4.65;;
64351;SDS011;50680;52.626;-8.668;2023-09-19T00:08:18;20.67;;;5.38;;
64351;SDS011;50680;52.626;-8.668;2023-09-19T00:10:50;25.35;;;6.20;;
64351;SDS011;50680;52.626;-8.668;2023-09-19T00:13:16;13.13;;;5.32;;
64351;SDS011;50680;52.626;-8.668;2023-09-19T00:15:46;20.33;;;5.45;;
64351;SDS011;50680;52.626;-8.668;2023-09-19T00:18:19;19.25;;;5.78;;
64351;SDS011;50680;52.626;-8.668;2023-09-19T00:21:00;22.67;;;5.63;;
64351;SDS011;50680;52.626;-8.668;2023-09-19T00:23:27;23.73;;;5.50;;
64351;SDS011;50680;52.626;-8.668;2023-09-19T00:25:54;21.95;;;5.75;;
64351;SDS011;50680;52.626;-8.668;2023-09-19T00:28:27;26.38;;;6.30;;
64351;SDS011;50680;52.626;-8.668;2023-09-19T00:30:56;16.33;;;5.93;;
64351;SDS011;50680;52.626;-8.668;2023-09-19T00:33:23;19.70;;;6.15;;
64351;SDS011;50680;52.626;-8.668;2023-09-19T00:35:51;25.00;;;6.53;;
64351;SDS011;50680;52.626;-8.668;2023-09-19T00:38:19;28.42;;;6.45;;
64351;SDS011;50680;52.626;-8.668;2023-09-19T00:40:54;26.80;;;7.15;;
64351;SDS011;50680;52.626;-8.668;2023-09-19T00:43:26;27.77;;;5.85;;
64351;SDS011;50680;52.626;-8.668;2023-09-19T00:45:55;20.08;;;5.72;;
64351;SDS011;50680;52.626;-8.668;2023-09-19T00:48:23;26.80;;;6.50;;
64351;SDS011;50680;52.626;-8.668;2023-09-19T00:50:54;22.80;;;5.78;;
64351;SDS011;50680;52.626;-8.668;2023-09-19T00:53:24;27.45;;;5.75;;
64351;SDS011;50680;52.626;-8.668;2023-09-19T00:55:52;21.52;;;5.60;;
64351;SDS011;50680;52.626;-8.668;2023-09-19T00:58:19;20.55;;;6.63;;
64351;SDS011;50680;52.626;-8.668;2023-09-19T01:00:48;17.73;;;5.50;;
64351;SDS011;50680;52.626;-8.668;2023-09-19T01:03:15;21.27;;;5.90;;
64351;SDS011;50680;52.626;-8.668;2023-09-19T01:05:45;16.73;;;4.85;;
64351;SDS011;50680;52.626;-8.668;2023-09-19T01:08:12;23.67;;;5.65;;
64351;SDS011;50680;52.626;-8.668;2023-09-19T01:10:41;20.27;;;6.03;;
64351;SDS011;50680;52.626;-8.668;2023-09-19T01:19:27;20.60;;;5.05;;
64351;SDS011;50680;52.626;-8.668;2023-09-19T01:30:17;14.43;;;3.95;;
64351;SDS011;50680;52.626;-8.668;2023-09-19T01:32:51;15.65;;;4.75;;
64351;SDS011;50680;52.626;-8.668;2023-09-19T01:35:19;14.43;;;4.30;;
64351;SDS011;50680;52.626;-8.668;2023-09-19T01:37:46;15.80;;;4.28;;
64351;SDS011;50680;52.626;-8.668;2023-09-19T01:40:13;14.68;;;4.03;;
64351;SDS011;50680;52.626;-8.668;2023-09-19T01:42:45;11.32;;;3.75;;
64351;SDS011;50680;52.626;-8.668;2023-09-19T01:45:31;11.20;;;3.90;;
64351;SDS011;50680;52.626;-8.668;2023-09-19T01:48:43;15.00;;;4.22;;
64351;SDS011;50680;52.626;-8.668;2023-09-19T01:51:10;15.15;;;4.53;;
64351;SDS011;50680;52.626;-8.668;2023-09-19T01:53:53;15.77;;;4.25;;
64351;SDS011;50680;52.626;-8.668;2023-09-19T01:56:32;15.13;;;4.07;;
64351;SDS011;50680;52.626;-8.668;2023-09-19T01:59:16;19.38;;;4.90;;
64351;SDS011;50680;52.626;-8.668;2023-09-19T02:01:47;14.38;;;4.45;;
64351;SDS011;50680;52.626;-8.668;2023-09-19T02:04:16;16.83;;;5.35;;
64351;SDS011;50680;52.626;-8.668;2023-09-19T02:06:43;14.25;;;3.95;;
64351;SDS011;50680;52.626;-8.668;2023-09-19T02:09:10;15.45;;;4.00;;
64351;SDS011;50680;52.626;-8.668;2023-09-19T02:11:36;18.00;;;3.72;;
64351;SDS011;50680;52.626;-8.668;2023-09-19T02:14:03;12.68;;;3.40;;
64351;SDS011;50680;52.626;-8.668;2023-09-19T02:16:35;1.20;;;1.20;;
64351;SDS011;50680;52.626;-8.668;2023-09-19T02:19:02;3.05;;;1.10;;
64351;SDS011;50680;52.626;-8.668;2023-09-19T02:21:32;0.90;;;0.90;;
64351;SDS011;50680;52.626;-8.668;2023-09-19T02:23:59;1.00;;;1.00;;
64351;SDS011;50680;52.626;-8.668;2023-09-19T02:26:26;2.60;;;2.40;;
64351;SDS011;50680;52.626;-8.668;2023-09-19T02:28:54;1.10;;;1.10;;
64351;SDS011;50680;52.626;-8.668;2023-09-19T02:31:20;0.90;;;0.90;;
64351;SDS011;50680;52.626;-8.668;2023-09-19T02:33:47;0.80;;;0.80;;
64351;SDS011;50680;52.626;-8.668;2023-09-19T02:36:14;0.90;;;0.90;;
64351;SDS011;50680;52.626;-8.668;2023-09-19T02:38:44;0.90;;;0.90;;
64351;SDS011;50680;52.626;-8.668;2023-09-19T02:41:13;0.85;;;0.85;;
64351;SDS011;50680;52.626;-8.668;2023-09-19T02:43:40;0.80;;;0.80;;
64351;SDS011;50680;52.626;-8.668;2023-09-19T02:46:09;0.95;;;0.95;;
64351;SDS011;50680;52.626;-8.668;2023-09-19T02:48:40;0.80;;;0.80;;
64351;SDS011;50680;52.626;-8.668;2023-09-19T02:51:12;0.85;;;0.85;;
64351;SDS011;50680;52.626;-8.668;2023-09-19T02:53:40;0.90;;;0.90;;
64351;SDS011;50680;52.626;-8.668;2023-09-19T02:56:09;0.90;;;0.90;;
64351;SDS011;50680;52.626;-8.668;2023-09-19T02:58:39;0.90;;;0.90;;
64351;SDS011;50680;52.626;-8.668;2023-09-19T03:01:11;1.30;;;1.30;;
64351;SDS011;50680;52.626;-8.668;2023-09-19T03:06:08;0.90;;;0.90;;
64351;SDS011;50680;52.626;-8.668;2023-09-19T03:08:37;0.90;;;0.90;;
64351;SDS011;50680;52.626;-8.668;2023-09-19T03:11:08;0.90;;;0.90;;
64351;SDS011;50680;52.626;-8.668;2023-09-19T03:13:37;0.90;;;0.90;;
64351;SDS011;50680;52.626;-8.668;2023-09-19T03:16:10;0.90;;;0.90;;
64351;SDS011;50680;52.626;-8.668;2023-09-19T03:18:39;0.90;;;0.90;;
64351;SDS011;50680;52.626;-8.668;2023-09-19T03:21:10;1.10;;;1.10;;
64351;SDS011;50680;52.626;-8.668;2023-09-19T03:23:39;0.93;;;0.93;;
64351;SDS011;50680;52.626;-8.668;2023-09-19T03:26:07;1.00;;;1.00;;
64351;SDS011;50680;52.626;-8.668;2023-09-19T03:28:34;0.90;;;0.90;;
64351;SDS011;50680;52.626;-8.668;2023-09-19T03:31:02;0.90;;;0.90;;
64351;SDS011;50680;52.626;-8.668;2023-09-19T03:33:30;0.90;;;0.90;;
64351;SDS011;50680;52.626;-8.668;2023-09-19T03:36:01;1.00;;;1.00;;
64351;SDS011;50680;52.626;-8.668;2023-09-19T03:38:32;1.20;;;1.20;;
64351;SDS011;50680;52.626;-8.668;2023-09-19T03:41:01;0.90;;;0.90;;
64351;SDS011;50680;52.626;-8.668;2023-09-19T03:43:28;0.90;;;0.90;;
64351;SDS011;50680;52.626;-8.668;2023-09-19T03:45:55;0.90;;;0.90;;
64351;SDS011;50680;52.626;-8.668;2023-09-19T03:48:23;0.90;;;0.90;;
64351;SDS011;50680;52.626;-8.668;2023-09-19T03:50:51;0.90;;;0.90;;
64351;SDS011;50680;52.626;-8.668;2023-09-19T03:53:19;0.98;;;0.98;;
64351;SDS011;50680;52.626;-8.668;2023-09-19T03:55:47;0.95;;;0.95;;
64351;SDS011;50680;52.626;-8.668;2023-09-19T03:58:15;0.90;;;0.90;;
64351;SDS011;50680;52.626;-8.668;2023-09-19T04:00:43;1.05;;;1.05;;
64351;SDS011;50680;52.626;-8.668;2023-09-19T04:03:10;0.90;;;0.90;;
64351;SDS011;50680;52.626;-8.668;2023-09-19T04:05:46;0.90;;;0.90;;
64351;SDS011;50680;52.626;-8.668;2023-09-19T04:08:14;0.90;;;0.90;;
64351;SDS011;50680;52.626;-8.668;2023-09-19T04:10:44;0.90;;;0.90;;
64351;SDS011;50680;52.626;-8.668;2023-09-19T04:13:12;1.00;;;1.00;;
64351;SDS011;50680;52.626;-8.668;2023-09-19T04:15:39;1.02;;;1.02;;
64351;SDS011;50680;52.626;-8.668;2023-09-19T04:18:06;1.00;;;1.00;;
64351;SDS011;50680;52.626;-8.668;2023-09-19T04:20:33;0.80;;;0.80;;
64351;SDS011;50680;52.626;-8.668;2023-09-19T04:23:00;1.00;;;1.00;;
64351;SDS011;50680;52.626;-8.668;2023-09-19T04:25:27;1.25;;;1.25;;
64351;SDS011;50680;52.626;-8.668;2023-09-19T04:27:54;1.08;;;1.08;;
64351;SDS011;50680;52.626;-8.668;2023-09-19T04:30:21;0.90;;;0.90;;
64351;SDS011;50680;52.626;-8.668;2023-09-19T04:32:48;1.00;;;1.00;;
64351;SDS011;50680;52.626;-8.668;2023-09-19T04:35:18;1.00;;;1.00;;
64351;SDS011;50680;52.626;-8.668;2023-09-19T04:37:45;1.25;;;1.25;;
64351;SDS011;50680;52.626;-8.668;2023-09-19T04:40:12;1.95;;;1.45;;
64351;SDS011;50680;52.626;-8.668;2023-09-19T04:42:42;1.00;;;1.00;;
64351;SDS011;50680;52.626;-8.668;2023-09-19T04:45:10;0.80;;;0.80;;
64351;SDS011;50680;52.626;-8.668;2023-09-19T04:47:37;0.98;;;0.98;;
64351;SDS011;50680;52.626;-8.668;2023-09-19T04:50:06;0.90;;;0.90;;
64351;SDS011;50680;52.626;-8.668;2023-09-19T04:52:41;1.00;;;1.00;;
64351;SDS011;50680;52.626;-8.668;2023-09-19T04:55:09;0.90;;;0.90;;
64351;SDS011;50680;52.626;-8.668;2023-09-19T04:57:37;1.00;;;1.00;;
64351;SDS011;50680;52.626;-8.668;2023-09-19T05:00:05;1.00;;;1.00;;
64351;SDS011;50680;52.626;-8.668;2023-09-19T05:02:38;1.00;;;1.00;;
64351;SDS011;50680;52.626;-8.668;2023-09-19T05:05:07;1.27;;;1.25;;
64351;SDS011;50680;52.626;-8.668;2023-09-19T05:07:34;1.27;;;1.17;;
64351;SDS011;50680;52.626;-8.668;2023-09-19T05:10:02;0.90;;;0.90;;
64351;SDS011;50680;52.626;-8.668;2023-09-19T05:15:05;1.00;;;1.00;;
64351;SDS011;50680;52.626;-8.668;2023-09-19T05:17:35;1.10;;;1.10;;
64351;SDS011;50680;52.626;-8.668;2023-09-19T05:20:03;0.88;;;0.88;;
64351;SDS011;50680;52.626;-8.668;2023-09-19T05:22:39;1.50;;;1.50;;
64351;SDS011;50680;52.626;-8.668;2023-09-19T05:25:07;1.10;;;1.10;;
64351;SDS011;50680;52.626;-8.668;2023-09-19T05:27:34;1.00;;;1.00;;
64351;SDS011;50680;52.626;-8.668;2023-09-19T05:30:01;1.10;;;1.10;;
64351;SDS011;50680;52.626;-8.668;2023-09-19T05:32:28;1.05;;;1.05;;
64351;SDS011;50680;52.626;-8.668;2023-09-19T05:34:55;0.98;;;0.98;;
64351;SDS011;50680;52.626;-8.668;2023-09-19T05:37:22;1.10;;;1.10;;
64351;SDS011;50680;52.626;-8.668;2023-09-19T05:39:49;0.93;;;0.93;;
64351;SDS011;50680;52.626;-8.668;2023-09-19T05:42:16;1.00;;;1.00;;
64351;SDS011;50680;52.626;-8.668;2023-09-19T05:44:43;0.95;;;0.95;;
64351;SDS011;50680;52.626;-8.668;2023-09-19T05:47:10;1.00;;;1.00;;
64351;SDS011;50680;52.626;-8.668;2023-09-19T05:49:37;0.98;;;0.98;;
64351;SDS011;50680;52.626;-8.668;2023-09-19T05:52:07;1.00;;;1.00;;
64351;SDS011;50680;52.626;-8.668;2023-09-19T05:54:34;1.02;;;1.02;;
64351;SDS011;50680;52.626;-8.668;2023-09-19T05:57:01;1.00;;;1.00;;
64351;SDS011;50680;52.626;-8.668;2023-09-19T05:59:28;0.90;;;0.90;;
64351;SDS011;50680;52.626;-8.668;2023-09-19T06:01:55;1.00;;;1.00;;
64351;SDS011;50680;52.626;-8.668;2023-09-19T06:04:22;1.60;;;1.52;;
64351;SDS011;50680;52.626;-8.668;2023-09-19T06:06:49;1.02;;;1.02;;
64351;SDS011;50680;52.626;-8.668;2023-09-19T06:09:16;0.90;;;0.90;;
64351;SDS011;50680;52.626;-8.668;2023-09-19T06:11:43;1.55;;;1.45;;
64351;SDS011;50680;52.626;-8.668;2023-09-19T06:14:10;1.52;;;1.52;;
64351;SDS011;50680;52.626;-8.668;2023-09-19T06:16:38;1.10;;;1.10;;
64351;SDS011;50680;52.626;-8.668;2023-09-19T06:19:05;1.40;;;1.30;;
64351;SDS011;50680;52.626;-8.668;2023-09-19T06:21:35;1.00;;;1.00;;
64351;SDS011;50680;52.626;-8.668;2023-09-19T06:24:03;1.00;;;1.00;;
64351;SDS011;50680;52.626;-8.668;2023-09-19T06:26:31;0.98;;;0.98;;
64351;SDS011;50680;52.626;-8.668;2023-09-19T06:28:58;1.20;;;1.20;;
64351;SDS011;50680;52.626;-8.668;2023-09-19T06:31:26;5.07;;;2.75;;
64351;SDS011;50680;52.626;-8.668;2023-09-19T06:33:53;1.00;;;1.00;;
64351;SDS011;50680;52.626;-8.668;2023-09-19T06:36:20;1.00;;;1.00;;
64351;SDS011;50680;52.626;-8.668;2023-09-19T06:38:47;1.00;;;1.00;;
64351;SDS011;50680;52.626;-8.668;2023-09-19T06:41:17;1.00;;;1.00;;
64351;SDS011;50680;52.626;-8.668;2023-09-19T06:43:44;1.00;;;1.00;;
64351;SDS011;50680;52.626;-8.668;2023-09-19T06:46:11;1.20;;;1.20;;
64351;SDS011;50680;52.626;-8.668;2023-09-19T06:48:39;0.90;;;0.90;;
64351;SDS011;50680;52.626;-8.668;2023-09-19T06:51:06;1.10;;;1.10;;
64351;SDS011;50680;52.626;-8.668;2023-09-19T06:53:34;0.90;;;0.90;;
64351;SDS011;50680;52.626;-8.668;2023-09-19T06:56:02;1.00;;;1.00;;
64351;SDS011;50680;52.626;-8.668;2023-09-19T06:58:29;1.10;;;1.10;;
64351;SDS011;50680;52.626;-8.668;2023-09-19T07:00:58;1.02;;;1.02;;
64351;SDS011;50680;52.626;-8.668;2023-09-19T07:03:25;1.00;;;1.00;;
64351;SDS011;50680;52.626;-8.668;2023-09-19T07:05:53;1.00;;;1.00;;
64351;SDS011;50680;52.626;-8.668;2023-09-19T07:08:22;1.00;;;1.00;;
64351;SDS011;50680;52.626;-8.668;2023-09-19T07:10:49;0.90;;;0.90;;
64351;SDS011;50680;52.626;-8.668;2023-09-19T07:13:16;1.08;;;1.08;;
64351;SDS011;50680;52.626;-8.668;2023-09-19T07:15:44;1.05;;;1.05;;
64351;SDS011;50680;52.626;-8.668;2023-09-19T07:18:14;0.90;;;0.90;;
64351;SDS011;50680;52.626;-8.668;2023-09-19T07:20:43;1.00;;;1.00;;
64351;SDS011;50680;52.626;-8.668;2023-09-19T07:23:20;1.00;;;1.00;;
64351;SDS011;50680;52.626;-8.668;2023-09-19T07:25:56;0.90;;;0.90;;
64351;SDS011;50680;52.626;-8.668;2023-09-19T07:30:50;0.90;;;0.90;;
64351;SDS011;50680;52.626;-8.668;2023-09-19T07:33:17;1.00;;;1.00;;
64351;SDS011;50680;52.626;-8.668;2023-09-19T07:35:47;1.10;;;1.10;;
64351;SDS011;50680;52.626;-8.668;2023-09-19T07:38:14;0.90;;;0.90;;
64351;SDS011;50680;52.626;-8.668;2023-09-19T07:40:41;0.95;;;0.95;;
64351;SDS011;50680;52.626;-8.668;2023-09-19T07:43:08;0.93;;;0.93;;
64351;SDS011;50680;52.626;-8.668;2023-09-19T07:45:35;1.00;;;1.00;;
64351;SDS011;50680;52.626;-8.668;2023-09-19T07:48:03;1.00;;;1.00;;
64351;SDS011;50680;52.626;-8.668;2023-09-19T07:50:32;1.00;;;1.00;;
64351;SDS011;50680;52.626;-8.668;2023-09-19T07:53:00;0.90;;;0.90;;
64351;SDS011;50680;52.626;-8.668;2023-09-19T07:55:26;1.00;;;1.00;;
64351;SDS011;50680;52.626;-8.668;2023-09-19T07:57:53;1.10;;;1.10;;
64351;SDS011;50680;52.626;-8.668;2023-09-19T08:00:20;1.10;;;1.10;;
64351;SDS011;50680;52.626;-8.668;2023-09-19T08:02:47;1.10;;;1.10;;
64351;SDS011;50680;52.626;-8.668;2023-09-19T08:05:23;1.00;;;1.00;;
64351;SDS011;50680;52.626;-8.668;2023-09-19T08:07:51;1.00;;;1.00;;
64351;SDS011;50680;52.626;-8.668;2023-09-19T08:10:19;1.00;;;1.00;;
64351;SDS011;50680;52.626;-8.668;2023-09-19T08:12:47;1.02;;;1.02;;
64351;SDS011;50680;52.626;-8.668;2023-09-19T08:15:19;0.90;;;0.90;;
64351;SDS011;50680;52.626;-8.668;2023-09-19T08:17:49;0.93;;;0.93;;
64351;SDS011;50680;52.626;-8.668;2023-09-19T08:20:16;1.10;;;1.10;;
64351;SDS011;50680;52.626;-8.668;2023-09-19T08:22:51;0.98;;;0.98;;
64351;SDS011;50680;52.626;-8.668;2023-09-19T08:25:21;1.00;;;1.00;;
64351;SDS011;50680;52.626;-8.668;2023-09-19T08:27:48;0.80;;;0.80;;
64351;SDS011;50680;52.626;-8.668;2023-09-19T08:30:16;2.13;;;2.03;;
64351;SDS011;50680;52.626;-8.668;2023-09-19T08:32:46;1.00;;;1.00;;
64351;SDS011;50680;52.626;-8.668;2023-09-19T08:35:14;1.00;;;1.00;;
64351;SDS011;50680;52.626;-8.668;2023-09-19T08:37:44;1.10;;;1.10;;
64351;SDS011;50680;52.626;-8.668;2023-09-19T08:40:14;1.10;;;1.10;;
64351;SDS011;50680;52.626;-8.668;2023-09-19T08:42:51;1.02;;;1.02;;
64351;SDS011;50680;52.626;-8.668;2023-09-19T08:45:24;1.02;;;1.02;;
64351;SDS011;50680;52.626;-8.668;2023-09-19T08:50:54;4.50;;;1.33;;
64351;SDS011;50680;52.626;-8.668;2023-09-19T08:56:25;1.00;;;1.00;;
64351;SDS011;50680;52.626;-8.668;2023-09-19T08:58:57;1.00;;;1.00;;
64351;SDS011;50680;52.626;-8.668;2023-09-19T09:01:28;1.10;;;1.10;;
64351;SDS011;50680;52.626;-8.668;2023-09-19T09:03:56;1.10;;;1.10;;
64351;SDS011;50680;52.626;-8.668;2023-09-19T09:06:24;2.15;;;1.70;;
64351;SDS011;50680;52.626;-8.668;2023-09-19T09:08:52;1.33;;;1.33;;
64351;SDS011;50680;52.626;-8.668;2023-09-19T09:11:19;1.10;;;1.10;;
64351;SDS011;50680;52.626;-8.668;2023-09-19T09:13:47;1.23;;;1.23;;
64351;SDS011;50680;52.626;-8.668;2023-09-19T09:16:14;1.45;;;1.45;;
64351;SDS011;50680;52.626;-8.668;2023-09-19T09:18:46;0.90;;;0.90;;
64351;SDS011;50680;52.626;-8.668;2023-09-19T09:21:20;1.10;;;1.10;;
64351;SDS011;50680;52.626;-8.668;2023-09-19T09:23:52;0.90;;;0.90;;
64351;SDS011;50680;52.626;-8.668;2023-09-19T09:26:40;1.25;;;1.25;;
64351;SDS011;50680;52.626;-8.668;2023-09-19T09:29:09;1.00;;;1.00;;
64351;SDS011;50680;52.626;-8.668;2023-09-19T09:31:36;1.10;;;1.10;;
64351;SDS011;50680;52.626;-8.668;2023-09-19T09:34:04;1.00;;;1.00;;
64351;SDS011;50680;52.626;-8.668;2023-09-19T09:36:38;1.20;;;1.20;;
64351;SDS011;50680;52.626;-8.668;2023-09-19T09:39:08;1.42;;;1.33;;
64351;SDS011;50680;52.626;-8.668;2023-09-19T09:41:45;1.50;;;1.50;;
64351;SDS011;50680;52.626;-8.668;2023-09-19T09:44:16;1.00;;;1.00;;
64351;SDS011;50680;52.626;-8.668;2023-09-19T09:46:47;1.10;;;1.10;;
64351;SDS011;50680;52.626;-8.668;2023-09-19T09:49:25;1.92;;;1.50;;
64351;SDS011;50680;52.626;-8.668;2023-09-19T09:54:37;1.02;;;1.02;;
64351;SDS011;50680;52.626;-8.668;2023-09-19T09:57:11;3.92;;;2.38;;
64351;SDS011;50680;52.626;-8.668;2023-09-19T09:59:47;1.00;;;1.00;;
64351;SDS011;50680;52.626;-8.668;2023-09-19T10:02:26;4.45;;;1.20;;
64351;SDS011;50680;52.626;-8.668;2023-09-19T10:04:59;1.33;;;1.30;;
64351;SDS011;50680;52.626;-8.668;2023-09-19T10:07:48;0.90;;;0.90;;
64351;SDS011;50680;52.626;-8.668;2023-09-19T10:13:05;1.00;;;1.00;;
64351;SDS011;50680;52.626;-8.668;2023-09-19T10:15:34;0.98;;;0.98;;
64351;SDS011;50680;52.626;-8.668;2023-09-19T10:18:06;1.00;;;1.00;;
64351;SDS011;50680;52.626;-8.668;2023-09-19T10:20:39;1.10;;;1.10;;
64351;SDS011;50680;52.626;-8.668;2023-09-19T10:23:09;0.93;;;0.93;;
64351;SDS011;50680;52.626;-8.668;2023-09-19T10:25:40;1.00;;;1.00;;
64351;SDS011;50680;52.626;-8.668;2023-09-19T10:28:08;0.98;;;0.98;;
64351;SDS011;50680;52.626;-8.668;2023-09-19T10:33:12;1.20;;;1.20;;
64351;SDS011;50680;52.626;-8.668;2023-09-19T10:35:45;1.15;;;1.15;;
64351;SDS011;50680;52.626;-8.668;2023-09-19T10:38:13;1.30;;;1.30;;
64351;SDS011;50680;52.626;-8.668;2023-09-19T10:40:44;1.10;;;1.10;;
64351;SDS011;50680;52.626;-8.668;2023-09-19T10:43:18;1.48;;;1.45;;
64351;SDS011;50680;52.626;-8.668;2023-09-19T10:45:48;1.38;;;1.38;;
64351;SDS011;50680;52.626;-8.668;2023-09-19T10:48:19;1.20;;;1.20;;
64351;SDS011;50680;52.626;-8.668;2023-09-19T10:51:02;2.60;;;1.42;;
64351;SDS011;50680;52.626;-8.668;2023-09-19T10:53:45;2.10;;;1.38;;
64351;SDS011;50680;52.626;-8.668;2023-09-19T10:56:19;1.10;;;1.10;;
64351;SDS011;50680;52.626;-8.668;2023-09-19T10:59:13;1.35;;;1.25;;
64351;SDS011;50680;52.626;-8.668;2023-09-19T11:01:55;1.20;;;1.20;;
64351;SDS011;50680;52.626;-8.668;2023-09-19T11:04:35;1.20;;;1.20;;
64351;SDS011;50680;52.626;-8.668;2023-09-19T11:07:06;1.20;;;1.20;;
64351;SDS011;50680;52.626;-8.668;2023-09-19T11:14:59;1.10;;;1.10;;
64351;SDS011;50680;52.626;-8.668;2023-09-19T11:17:32;1.20;;;1.20;;
64351;SDS011;50680;52.626;-8.668;2023-09-19T11:30:53;1.10;;;1.10;;
64351;SDS011;50680;52.626;-8.668;2023-09-19T11:33:22;1.10;;;1.10;;
64351;SDS011;50680;52.626;-8.668;2023-09-19T11:46:53;1.20;;;1.20;;
64351;SDS011;50680;52.626;-8.668;2023-09-19T11:49:31;1.30;;;1.30;;
64351;SDS011;50680;52.626;-8.668;2023-09-19T11:52:00;1.08;;;1.08;;
64351;SDS011;50680;52.626;-8.668;2023-09-19T11:54:28;1.10;;;1.10;;
64351;SDS011;50680;52.626;-8.668;2023-09-19T11:56:58;1.10;;;1.10;;
64351;SDS011;50680;52.626;-8.668;2023-09-19T11:59:26;1.20;;;1.20;;
64351;SDS011;50680;52.626;-8.668;2023-09-19T12:07:08;1.20;;;1.20;;
64351;SDS011;50680;52.626;-8.668;2023-09-19T12:09:43;1.80;;;1.77;;
64351;SDS011;50680;52.626;-8.668;2023-09-19T12:12:20;1.17;;;1.17;;
64351;SDS011;50680;52.626;-8.668;2023-09-19T12:14:48;1.50;;;1.42;;
64351;SDS011;50680;52.626;-8.668;2023-09-19T12:17:17;1.17;;;1.17;;
64351;SDS011;50680;52.626;-8.668;2023-09-19T12:19:51;30.35;;;5.60;;
64351;SDS011;50680;52.626;-8.668;2023-09-19T12:22:19;34.80;;;6.35;;
64351;SDS011;50680;52.626;-8.668;2023-09-19T12:24:49;27.77;;;5.75;;
64351;SDS011;50680;52.626;-8.668;2023-09-19T12:27:17;32.65;;;5.00;;
64351;SDS011;50680;52.626;-8.668;2023-09-19T12:29:47;24.38;;;5.60;;
64351;SDS011;50680;52.626;-8.668;2023-09-19T12:32:34;28.70;;;5.90;;
64351;SDS011;50680;52.626;-8.668;2023-09-19T12:35:02;33.58;;;4.47;;
64351;SDS011;50680;52.626;-8.668;2023-09-19T12:37:34;30.60;;;5.90;;
64351;SDS011;50680;52.626;-8.668;2023-09-19T12:40:06;30.67;;;5.32;;
64351;SDS011;50680;52.626;-8.668;2023-09-19T12:42:44;28.98;;;5.30;;
64351;SDS011;50680;52.626;-8.668;2023-09-19T12:45:13;27.00;;;4.90;;
64351;SDS011;50680;52.626;-8.668;2023-09-19T12:48:17;24.10;;;5.15;;
64351;SDS011;50680;52.626;-8.668;2023-09-19T12:51:08;21.58;;;4.78;;
64351;SDS011;50680;52.626;-8.668;2023-09-19T12:53:39;25.70;;;5.15;;
64351;SDS011;50680;52.626;-8.668;2023-09-19T12:56:15;35.05;;;4.63;;
64351;SDS011;50680;52.626;-8.668;2023-09-19T12:58:48;21.95;;;4.70;;
64351;SDS011;50680;52.626;-8.668;2023-09-19T13:01:22;24.65;;;4.63;;
64351;SDS011;50680;52.626;-8.668;2023-09-19T13:06:48;27.83;;;4.95;;
64351;SDS011;50680;52.626;-8.668;2023-09-19T13:09:16;26.33;;;4.88;;
64351;SDS011;50680;52.626;-8.668;2023-09-19T13:11:47;23.92;;;5.18;;
64351;SDS011;50680;52.626;-8.668;2023-09-19T13:17:03;22.33;;;4.72;;
64351;SDS011;50680;52.626;-8.668;2023-09-19T13:19:43;28.60;;;6.05;;
64351;SDS011;50680;52.626;-8.668;2023-09-19T13:25:06;24.15;;;5.60;;
64351;SDS011;50680;52.626;-8.668;2023-09-19T13:27:42;29.63;;;7.22;;
64351;SDS011;50680;52.626;-8.668;2023-09-19T13:30:18;26.35;;;5.15;;
64351;SDS011;50680;52.626;-8.668;2023-09-19T13:32:45;16.13;;;3.97;;
64351;SDS011;50680;52.626;-8.668;2023-09-19T13:35:14;21.90;;;4.57;;
64351;SDS011;50680;52.626;-8.668;2023-09-19T13:37:42;23.30;;;4.43;;
64351;SDS011;50680;52.626;-8.668;2023-09-19T13:40:11;16.85;;;4.03;;
64351;SDS011;50680;52.626;-8.668;2023-09-19T13:42:40;14.05;;;3.40;;
64351;SDS011;50680;52.626;-8.668;2023-09-19T13:45:07;12.43;;;3.10;;
64351;SDS011;50680;52.626;-8.668;2023-09-19T13:47:39;18.83;;;4.50;;
64351;SDS011;50680;52.626;-8.668;2023-09-19T13:50:07;12.82;;;3.38;;
64351;SDS011;50680;52.626;-8.668;2023-09-19T13:52:35;12.02;;;2.95;;
64351;SDS011;50680;52.626;-8.668;2023-09-19T13:55:02;12.82;;;3.30;;
64351;SDS011;50680;52.626;-8.668;2023-09-19T13:57:29;8.85;;;2.08;;
64351;SDS011;50680;52.626;-8.668;2023-09-19T13:59:56;10.43;;;2.15;;
64351;SDS011;50680;52.626;-8.668;2023-09-19T14:02:23;9.88;;;1.92;;
64351;SDS011;50680;52.626;-8.668;2023-09-19T14:04:51;11.75;;;2.78;;
64351;SDS011;50680;52.626;-8.668;2023-09-19T14:07:19;11.13;;;2.55;;
64351;SDS011;50680;52.626;-8.668;2023-09-19T14:09:46;10.43;;;2.45;;
64351;SDS011;50680;52.626;-8.668;2023-09-19T14:12:14;11.35;;;2.53;;
64351;SDS011;50680;52.626;-8.668;2023-09-19T14:14:42;11.23;;;2.33;;
64351;SDS011;50680;52.626;-8.668;2023-09-19T14:17:09;14.20;;;3.25;;
64351;SDS011;50680;52.626;-8.668;2023-09-19T14:19:36;15.32;;;3.20;;
64351;SDS011;50680;52.626;-8.668;2023-09-19T14:22:04;14.23;;;3.33;;
64351;SDS011;50680;52.626;-8.668;2023-09-19T14:24:34;16.58;;;3.05;;
64351;SDS011;50680;52.626;-8.668;2023-09-19T14:27:01;15.43;;;2.80;;
64351;SDS011;50680;52.626;-8.668;2023-09-19T14:29:30;14.52;;;3.08;;
64351;SDS011;50680;52.626;-8.668;2023-09-19T14:31:58;18.50;;;3.13;;
64351;SDS011;50680;52.626;-8.668;2023-09-19T14:34:25;20.75;;;3.05;;
64351;SDS011;50680;52.626;-8.668;2023-09-19T14:36:53;18.40;;;3.47;;
64351;SDS011;50680;52.626;-8.668;2023-09-19T14:39:21;19.63;;;3.20;;
64351;SDS011;50680;52.626;-8.668;2023-09-19T14:41:48;11.88;;;2.45;;
64351;SDS011;50680;52.626;-8.668;2023-09-19T14:44:15;9.93;;;2.50;;
64351;SDS011;50680;52.626;-8.668;2023-09-19T14:46:44;7.57;;;2.30;;
64351;SDS011;50680;52.626;-8.668;2023-09-19T14:49:11;11.02;;;2.03;;
64351;SDS011;50680;52.626;-8.668;2023-09-19T14:51:38;6.68;;;2.00;;
64351;SDS011;50680;52.626;-8.668;2023-09-19T14:54:10;3.80;;;1.60;;
64351;SDS011;50680;52.626;-8.668;2023-09-19T14:56:37;6.82;;;1.80;;
64351;SDS011;50680;52.626;-8.668;2023-09-19T15:01:37;4.43;;;1.23;;
64351;SDS011;50680;52.626;-8.668;2023-09-19T15:04:05;3.65;;;1.38;;
64351;SDS011;50680;52.626;-8.668;2023-09-19T15:06:32;2.80;;;1.23;;
64351;SDS011;50680;52.626;-8.668;2023-09-19T15:09:00;2.53;;;1.30;;
64351;SDS011;50680;52.626;-8.668;2023-09-19T15:11:27;3.50;;;1.40;;
64351;SDS011;50680;52.626;-8.668;2023-09-19T15:13:54;1.95;;;1.00;;
64351;SDS011;50680;52.626;-8.668;2023-09-19T15:16:21;1.83;;;1.15;;
64351;SDS011;50680;52.626;-8.668;2023-09-19T15:18:48;4.53;;;1.30;;
64351;SDS011;50680;52.626;-8.668;2023-09-19T15:21:16;3.90;;;1.23;;
64351;SDS011;50680;52.626;-8.668;2023-09-19T15:23:43;1.92;;;1.25;;
64351;SDS011;50680;52.626;-8.668;2023-09-19T15:26:11;3.28;;;1.20;;
64351;SDS011;50680;52.626;-8.668;2023-09-19T15:28:40;1.83;;;1.10;;
64351;SDS011;50680;52.626;-8.668;2023-09-19T15:31:09;5.07;;;1.20;;
64351;SDS011;50680;52.626;-8.668;2023-09-19T15:33:37;2.20;;;1.10;;
64351;SDS011;50680;52.626;-8.668;2023-09-19T15:36:11;1.45;;;1.00;;
64351;SDS011;50680;52.626;-8.668;2023-09-19T15:38:56;3.55;;;1.38;;
64351;SDS011;50680;52.626;-8.668;2023-09-19T15:41:24;4.78;;;1.30;;
64351;SDS011;50680;52.626;-8.668;2023-09-19T15:46:22;2.35;;;1.17;;
64351;SDS011;50680;52.626;-8.668;2023-09-19T15:48:49;3.22;;;1.30;;
64351;SDS011;50680;52.626;-8.668;2023-09-19T15:51:16;1.45;;;1.10;;
64351;SDS011;50680;52.626;-8.668;2023-09-19T15:53:47;4.35;;;1.45;;
64351;SDS011;50680;52.626;-8.668;2023-09-19T15:56:16;1.77;;;1.10;;
64351;SDS011;50680;52.626;-8.668;2023-09-19T15:58:44;2.38;;;1.00;;
64351;SDS011;50680;52.626;-8.668;2023-09-19T16:01:13;1.65;;;1.27;;
64351;SDS011;50680;52.626;-8.668;2023-09-19T16:03:43;2.65;;;1.30;;
64351;SDS011;50680;52.626;-8.668;2023-09-19T16:06:15;2.33;;;1.30;;
64351;SDS011;50680;52.626;-8.668;2023-09-19T16:08:47;1.35;;;1.00;;